Carnival Valor — H3VR — position and weather

sailwx.info

Track history (hours):
 
Tides and Currents Weather Stations Pressure Air Temp Water Temp Dewpoint Dewpoint Depression Visibility Wind Speed Wind Dir Waves Ship Positions

Carnival Valor

Last reported at 2015-May-24 07:15 UTC. Time now 2015-May-25 13:25 UTC.
Position N 26°07' W 078°26'.

Type: Ship. MMSI: 354298000.

Date/timePositionNaut miles runAvg speedWind from/ knotsBaromVisibWave heightAir tempDewpointWater temp
2015-May-24 07:15N 26°07' W 078°26'1419.8
2015-May-24 06:33N 26°12' W 078°40'169 9.3
2015-May-23 12:25N 28°25' W 080°38'0 0.0
2015-May-23 11:26N 28°25' W 080°38'2 2.1
2015-May-23 10:27N 28°25' W 080°35'9315.9
2015-May-23 04:33N 27°02' W 079°45'2221.9
2015-May-23 03:33N 26°40' W 079°46'2221.9
2015-May-23 02:33N 26°19' W 079°46'2222.0
2015-May-23 01:34N 25°57' W 079°46'  
2015-May-18 22:32N 20°29' W 087°01'2 1.9
2015-May-18 21:22N 20°29' W 086°59'0 0.0
2015-May-18 19:33N 20°29' W 086°59'0 0.0
2015-May-18 18:32N 20°29' W 086°59'0 0.0
2015-May-18 17:08N 20°29' W 086°59'0 0.0
2015-May-18 15:09N 20°29' W 086°59'0 0.0
2015-May-18 13:23N 20°29' W 086°59'49317.1
2015-May-17 08:33N 25°36' W 079°59'1515.1
2015-May-17 07:33N 25°51' W 079°59'1414.3
2015-May-17 06:33N 26°05' W 079°58'1414.2
2015-May-17 05:33N 26°20' W 079°57'1414.2
2015-May-17 04:33N 26°34' W 079°56'1414.5
2015-May-17 03:33N 26°48' W 079°56'1414.3
2015-May-17 02:33N 27°03' W 079°56'  
Track history (hours):
 
Tides and Currents Weather Stations Pressure Air Temp Water Temp Dewpoint Dewpoint Depression Visibility Wind Speed Wind Dir Waves Ship Positions

Carnival Valor

Last reported at 2015-May-24 07:15 UTC. Time now 2015-May-25 13:25 UTC.
Position N 26°07' W 078°26'.

Type: Ship. MMSI: 354298000.

Date/timePositionNaut miles runAvg speedWind from/ knotsBaromVisibWave heightAir tempDewpointWater temp
2015-May-24 07:15N 26°07' W 078°26'1419.8
2015-May-24 06:33N 26°12' W 078°40'169 9.3
2015-May-23 12:25N 28°25' W 080°38'0 0.0
2015-May-23 11:26N 28°25' W 080°38'2 2.1
2015-May-23 10:27N 28°25' W 080°35'9315.9
2015-May-23 04:33N 27°02' W 079°45'2221.9
2015-May-23 03:33N 26°40' W 079°46'2221.9
2015-May-23 02:33N 26°19' W 079°46'2222.0
2015-May-23 01:34N 25°57' W 079°46'  
2015-May-18 22:32N 20°29' W 087°01'2 1.9
2015-May-18 21:22N 20°29' W 086°59'0 0.0
2015-May-18 19:33N 20°29' W 086°59'0 0.0
2015-May-18 18:32N 20°29' W 086°59'0 0.0
2015-May-18 17:08N 20°29' W 086°59'0 0.0
2015-May-18 15:09N 20°29' W 086°59'0 0.0
2015-May-18 13:23N 20°29' W 086°59'49317.1
2015-May-17 08:33N 25°36' W 079°59'1515.1
2015-May-17 07:33N 25°51' W 079°59'1414.3
2015-May-17 06:33N 26°05' W 079°58'1414.2
2015-May-17 05:33N 26°20' W 079°57'1414.2
2015-May-17 04:33N 26°34' W 079°56'1414.5
2015-May-17 03:33N 26°48' W 079°56'1414.3
2015-May-17 02:33N 27°03' W 079°56'  

Dump ship's entire track history